sensor_id;sensor_type;location;lat;lon;timestamp;pressure;altitude;pressure_sealevel;temperature;humidity
71907;BME280;59781;52.090;5.030;2023-04-06T00:01:49;101775.09;;;5.71;100.00
71907;BME280;59781;52.090;5.030;2023-04-06T00:04:16;101770.91;;;5.56;100.00
71907;BME280;59781;52.090;5.030;2023-04-06T00:06:41;101766.59;;;5.78;100.00
71907;BME280;59781;52.090;5.030;2023-04-06T00:09:07;101766.25;;;5.47;100.00
71907;BME280;59781;52.090;5.030;2023-04-06T00:11:33;101769.13;;;5.33;100.00
71907;BME280;59781;52.090;5.030;2023-04-06T00:13:59;101755.41;;;5.37;100.00
71907;BME280;59781;52.090;5.030;2023-04-06T00:16:25;101757.00;;;5.40;100.00
71907;BME280;59781;52.090;5.030;2023-04-06T00:18:51;101748.22;;;5.62;100.00
71907;BME280;59781;52.090;5.030;2023-04-06T00:21:17;101754.28;;;5.53;100.00
71907;BME280;59781;52.090;5.030;2023-04-06T00:23:43;101754.13;;;5.43;100.00
71907;BME280;59781;52.090;5.030;2023-04-06T00:26:09;101748.97;;;5.40;100.00
71907;BME280;59781;52.090;5.030;2023-04-06T00:28:37;101751.59;;;5.29;100.00
71907;BME280;59781;52.090;5.030;2023-04-06T00:31:03;101743.84;;;5.26;100.00
71907;BME280;59781;52.090;5.030;2023-04-06T00:33:29;101746.59;;;5.48;100.00
71907;BME280;59781;52.090;5.030;2023-04-06T00:35:55;101737.03;;;5.57;100.00
71907;BME280;59781;52.090;5.030;2023-04-06T00:38:21;101734.69;;;5.41;100.00
71907;BME280;59781;52.090;5.030;2023-04-06T00:40:47;101741.84;;;5.16;100.00
71907;BME280;59781;52.090;5.030;2023-04-06T00:43:13;101737.53;;;5.27;100.00
71907;BME280;59781;52.090;5.030;2023-04-06T00:45:41;101730.53;;;5.37;100.00
71907;BME280;59781;52.090;5.030;2023-04-06T00:48:08;101732.34;;;5.36;100.00
71907;BME280;59781;52.090;5.030;2023-04-06T00:50:34;101732.41;;;5.59;100.00
71907;BME280;59781;52.090;5.030;2023-04-06T00:53:00;101718.06;;;5.48;100.00
71907;BME280;59781;52.090;5.030;2023-04-06T00:55:28;101720.75;;;5.60;100.00
71907;BME280;59781;52.090;5.030;2023-04-06T00:57:59;101718.06;;;5.48;100.00
71907;BME280;59781;52.090;5.030;2023-04-06T01:00:34;101707.59;;;5.45;100.00
71907;BME280;59781;52.090;5.030;2023-04-06T01:03:01;101713.06;;;5.44;100.00
71907;BME280;59781;52.090;5.030;2023-04-06T01:05:45;101707.59;;;5.45;100.00
71907;BME280;59781;52.090;5.030;2023-04-06T01:08:18;101700.63;;;5.67;98.94
71907;BME280;59781;52.090;5.030;2023-04-06T01:10:45;101704.66;;;5.84;98.57
71907;BME280;59781;52.090;5.030;2023-04-06T01:13:21;101698.75;;;5.45;100.00
71907;BME280;59781;52.090;5.030;2023-04-06T01:16:07;101704.84;;;5.58;100.00
71907;BME280;59781;52.090;5.030;2023-04-06T01:19:01;101697.13;;;5.31;100.00
71907;BME280;59781;52.090;5.030;2023-04-06T01:21:32;101694.31;;;5.22;100.00
71907;BME280;59781;52.090;5.030;2023-04-06T01:24:16;101691.47;;;5.47;99.52
71907;BME280;59781;52.090;5.030;2023-04-06T01:27:00;101688.78;;;5.47;99.39
71907;BME280;59781;52.090;5.030;2023-04-06T01:29:33;101689.91;;;5.56;98.88
71907;BME280;59781;52.090;5.030;2023-04-06T01:32:01;101684.59;;;5.78;97.66
71907;BME280;59781;52.090;5.030;2023-04-06T01:34:30;101673.56;;;5.83;95.18
71907;BME280;59781;52.090;5.030;2023-04-06T01:37:01;101677.41;;;5.67;95.12
71907;BME280;59781;52.090;5.030;2023-04-06T01:39:29;101674.53;;;5.70;95.20
71907;BME280;59781;52.090;5.030;2023-04-06T01:41:56;101669.69;;;5.40;97.85
71907;BME280;59781;52.090;5.030;2023-04-06T01:44:23;101669.75;;;5.63;95.66
71907;BME280;59781;52.090;5.030;2023-04-06T01:46:56;101664.53;;;5.61;95.55
71907;BME280;59781;52.090;5.030;2023-04-06T01:49:22;101661.38;;;5.67;93.89
71907;BME280;59781;52.090;5.030;2023-04-06T01:51:53;101655.16;;;5.56;94.59
71907;BME280;59781;52.090;5.030;2023-04-06T01:54:20;101659.13;;;5.96;91.92
71907;BME280;59781;52.090;5.030;2023-04-06T01:57:03;101654.59;;;5.86;90.06
71907;BME280;59781;52.090;5.030;2023-04-06T01:59:47;101648.16;;;5.88;89.45
71907;BME280;59781;52.090;5.030;2023-04-06T02:02:24;101642.94;;;5.75;90.81
71907;BME280;59781;52.090;5.030;2023-04-06T02:04:57;101646.25;;;6.13;88.36
71907;BME280;59781;52.090;5.030;2023-04-06T02:07:23;101638.44;;;5.87;88.62
71907;BME280;59781;52.090;5.030;2023-04-06T02:09:53;101632.97;;;5.66;91.74
71907;BME280;59781;52.090;5.030;2023-04-06T02:12:24;101632.69;;;5.58;90.50
71907;BME280;59781;52.090;5.030;2023-04-06T02:14:50;101631.38;;;5.75;90.45
71907;BME280;59781;52.090;5.030;2023-04-06T02:17:19;101621.19;;;5.80;91.64
71907;BME280;59781;52.090;5.030;2023-04-06T02:19:45;101614.50;;;5.63;90.84
71907;BME280;59781;52.090;5.030;2023-04-06T02:22:11;101623.97;;;5.79;88.85
71907;BME280;59781;52.090;5.030;2023-04-06T02:24:37;101619.84;;;5.63;90.93
71907;BME280;59781;52.090;5.030;2023-04-06T02:27:02;101617.78;;;5.78;90.88
71907;BME280;59781;52.090;5.030;2023-04-06T02:29:28;101614.50;;;5.63;92.86
71907;BME280;59781;52.090;5.030;2023-04-06T02:31:54;101609.88;;;5.54;94.47
71907;BME280;59781;52.090;5.030;2023-04-06T02:34:21;101615.22;;;5.54;94.39
71907;BME280;59781;52.090;5.030;2023-04-06T02:36:49;101612.94;;;5.72;93.06
71907;BME280;59781;52.090;5.030;2023-04-06T02:39:15;101610.84;;;5.53;95.33
71907;BME280;59781;52.090;5.030;2023-04-06T02:41:41;101614.97;;;5.68;95.15
71907;BME280;59781;52.090;5.030;2023-04-06T02:44:08;101607.53;;;5.38;96.16
71907;BME280;59781;52.090;5.030;2023-04-06T02:46:39;101596.63;;;5.41;98.42
71907;BME280;59781;52.090;5.030;2023-04-06T02:49:05;101594.56;;;5.45;98.97
71907;BME280;59781;52.090;5.030;2023-04-06T02:51:33;101599.06;;;5.44;99.36
71907;BME280;59781;52.090;5.030;2023-04-06T02:54:10;101590.78;;;5.47;99.73
71907;BME280;59781;52.090;5.030;2023-04-06T02:56:36;101592.09;;;5.31;100.00
71907;BME280;59781;52.090;5.030;2023-04-06T02:59:02;101586.66;;;5.32;100.00
71907;BME280;59781;52.090;5.030;2023-04-06T03:01:31;101587.72;;;5.30;100.00
71907;BME280;59781;52.090;5.030;2023-04-06T03:04:01;101588.22;;;5.24;100.00
71907;BME280;59781;52.090;5.030;2023-04-06T03:06:28;101586.41;;;5.24;100.00
71907;BME280;59781;52.090;5.030;2023-04-06T03:08:59;101584.72;;;5.45;100.00
71907;BME280;59781;52.090;5.030;2023-04-06T03:11:25;101579.13;;;5.48;100.00
71907;BME280;59781;52.090;5.030;2023-04-06T03:13:52;101580.09;;;5.59;99.30
71907;BME280;59781;52.090;5.030;2023-04-06T03:16:18;101568.69;;;5.34;99.96
71907;BME280;59781;52.090;5.030;2023-04-06T03:18:44;101579.13;;;5.37;99.94
71907;BME280;59781;52.090;5.030;2023-04-06T03:21:15;101568.56;;;5.58;98.21
71907;BME280;59781;52.090;5.030;2023-04-06T03:23:50;101570.25;;;5.48;99.01
71907;BME280;59781;52.090;5.030;2023-04-06T03:26:16;101568.31;;;5.39;100.00
71907;BME280;59781;52.090;5.030;2023-04-06T03:28:42;101564.44;;;5.43;100.00
71907;BME280;59781;52.090;5.030;2023-04-06T03:31:08;101564.31;;;5.44;100.00
71907;BME280;59781;52.090;5.030;2023-04-06T03:33:42;101564.69;;;5.51;99.10
71907;BME280;59781;52.090;5.030;2023-04-06T03:36:13;101551.34;;;5.73;98.16
71907;BME280;59781;52.090;5.030;2023-04-06T03:38:41;101561.19;;;5.51;100.00
71907;BME280;59781;52.090;5.030;2023-04-06T03:41:12;101556.19;;;5.35;100.00
71907;BME280;59781;52.090;5.030;2023-04-06T03:43:41;101553.25;;;5.60;99.26
71907;BME280;59781;52.090;5.030;2023-04-06T03:46:07;101550.09;;;5.78;98.04
71907;BME280;59781;52.090;5.030;2023-04-06T03:48:33;101551.09;;;5.76;97.61
71907;BME280;59781;52.090;5.030;2023-04-06T03:51:02;101545.16;;;5.62;98.74
71907;BME280;59781;52.090;5.030;2023-04-06T03:53:28;101549.63;;;5.50;99.95
71907;BME280;59781;52.090;5.030;2023-04-06T03:55:53;101544.19;;;5.63;100.00
71907;BME280;59781;52.090;5.030;2023-04-06T03:58:20;101544.03;;;5.75;99.09
71907;BME280;59781;52.090;5.030;2023-04-06T04:00:45;101544.28;;;5.84;98.88
71907;BME280;59781;52.090;5.030;2023-04-06T04:03:11;101544.28;;;5.50;100.00
71907;BME280;59781;52.090;5.030;2023-04-06T04:05:37;101544.88;;;5.76;100.00
71907;BME280;59781;52.090;5.030;2023-04-06T04:08:03;101527.88;;;5.77;99.94
71907;BME280;59781;52.090;5.030;2023-04-06T04:10:30;101546.59;;;5.77;99.00
71907;BME280;59781;52.090;5.030;2023-04-06T04:12:56;101537.47;;;5.80;98.75
71907;BME280;59781;52.090;5.030;2023-04-06T04:15:22;101531.28;;;5.68;98.87
71907;BME280;59781;52.090;5.030;2023-04-06T04:17:47;101541.34;;;5.87;97.55
71907;BME280;59781;52.090;5.030;2023-04-06T04:20:15;101524.59;;;5.96;96.57
71907;BME280;59781;52.090;5.030;2023-04-06T04:22:41;101535.75;;;6.12;96.96
71907;BME280;59781;52.090;5.030;2023-04-06T04:25:09;101528.94;;;6.08;95.76
71907;BME280;59781;52.090;5.030;2023-04-06T04:27:39;101535.41;;;5.94;95.87
71907;BME280;59781;52.090;5.030;2023-04-06T04:30:06;101527.97;;;6.09;95.67
71907;BME280;59781;52.090;5.030;2023-04-06T04:32:32;101526.81;;;5.91;97.08
71907;BME280;59781;52.090;5.030;2023-04-06T04:35:00;101519.25;;;5.96;94.63
71907;BME280;59781;52.090;5.030;2023-04-06T04:37:34;101517.03;;;6.12;91.67
71907;BME280;59781;52.090;5.030;2023-04-06T04:40:00;101520.31;;;6.16;91.59
71907;BME280;59781;52.090;5.030;2023-04-06T04:42:29;101524.34;;;5.99;92.09
71907;BME280;59781;52.090;5.030;2023-04-06T04:44:58;101517.03;;;6.12;92.44
71907;BME280;59781;52.090;5.030;2023-04-06T04:50:18;101517.53;;;6.06;92.24
71907;BME280;59781;52.090;5.030;2023-04-06T04:52:47;101514.69;;;6.19;91.95
71907;BME280;59781;52.090;5.030;2023-04-06T04:55:16;101512.72;;;6.32;91.11
71907;BME280;59781;52.090;5.030;2023-04-06T04:57:45;101523.28;;;6.33;89.77
71907;BME280;59781;52.090;5.030;2023-04-06T05:00:12;101521.00;;;6.18;91.45
71907;BME280;59781;52.090;5.030;2023-04-06T05:02:41;101519.00;;;6.10;92.50
71907;BME280;59781;52.090;5.030;2023-04-06T05:05:30;101519.06;;;6.31;91.55
71907;BME280;59781;52.090;5.030;2023-04-06T05:07:56;101515.47;;;6.10;92.98
71907;BME280;59781;52.090;5.030;2023-04-06T05:10:38;101521.16;;;6.16;93.29
71907;BME280;59781;52.090;5.030;2023-04-06T05:13:04;101515.22;;;6.13;94.82
71907;BME280;59781;52.090;5.030;2023-04-06T05:15:30;101510.34;;;6.07;94.47
71907;BME280;59781;52.090;5.030;2023-04-06T05:18:04;101516.66;;;6.17;94.12
71907;BME280;59781;52.090;5.030;2023-04-06T05:20:32;101510.13;;;6.10;94.32
71907;BME280;59781;52.090;5.030;2023-04-06T05:22:59;101510.72;;;6.13;94.05
71907;BME280;59781;52.090;5.030;2023-04-06T05:25:25;101511.38;;;5.94;95.87
71907;BME280;59781;52.090;5.030;2023-04-06T05:27:54;101504.56;;;6.01;95.45
71907;BME280;59781;52.090;5.030;2023-04-06T05:30:30;101517.00;;;6.23;94.36
71907;BME280;59781;52.090;5.030;2023-04-06T05:32:56;101518.34;;;6.18;94.38
71907;BME280;59781;52.090;5.030;2023-04-06T05:38:01;101521.56;;;6.00;96.03
71907;BME280;59781;52.090;5.030;2023-04-06T05:40:27;101511.09;;;5.97;96.45
71907;BME280;59781;52.090;5.030;2023-04-06T05:42:53;101523.88;;;5.83;98.66
71907;BME280;59781;52.090;5.030;2023-04-06T05:45:19;101522.19;;;5.82;98.48
71907;BME280;59781;52.090;5.030;2023-04-06T05:47:53;101517.75;;;6.14;96.73
71907;BME280;59781;52.090;5.030;2023-04-06T05:50:26;101523.47;;;6.21;96.75
71907;BME280;59781;52.090;5.030;2023-04-06T05:52:55;101509.50;;;6.06;97.64
71907;BME280;59781;52.090;5.030;2023-04-06T05:55:24;101513.47;;;6.23;96.27
71907;BME280;59781;52.090;5.030;2023-04-06T05:58:00;101524.63;;;6.39;95.70
71907;BME280;59781;52.090;5.030;2023-04-06T06:00:25;101522.13;;;6.15;96.76
71907;BME280;59781;52.090;5.030;2023-04-06T06:03:00;101523.31;;;6.22;96.54
71907;BME280;59781;52.090;5.030;2023-04-06T06:05:30;101532.56;;;6.29;98.58
71907;BME280;59781;52.090;5.030;2023-04-06T06:08:02;101515.28;;;6.54;96.46
71907;BME280;59781;52.090;5.030;2023-04-06T06:10:28;101520.00;;;6.41;98.66
71907;BME280;59781;52.090;5.030;2023-04-06T06:12:55;101518.06;;;6.85;95.36
71907;BME280;59781;52.090;5.030;2023-04-06T06:15:21;101516.84;;;6.57;98.91
71907;BME280;59781;52.090;5.030;2023-04-06T06:17:47;101520.47;;;6.35;100.00
71907;BME280;59781;52.090;5.030;2023-04-06T06:20:13;101525.47;;;6.40;100.00
71907;BME280;59781;52.090;5.030;2023-04-06T06:22:39;101520.03;;;6.30;100.00
71907;BME280;59781;52.090;5.030;2023-04-06T06:25:09;101515.63;;;6.40;100.00
71907;BME280;59781;52.090;5.030;2023-04-06T06:27:34;101517.53;;;6.49;100.00
71907;BME280;59781;52.090;5.030;2023-04-06T06:30:04;101519.31;;;6.49;100.00
71907;BME280;59781;52.090;5.030;2023-04-06T06:32:32;101518.97;;;6.21;100.00
71907;BME280;59781;52.090;5.030;2023-04-06T06:34:59;101512.28;;;6.48;100.00
71907;BME280;59781;52.090;5.030;2023-04-06T06:37:27;101515.59;;;6.72;100.00
71907;BME280;59781;52.090;5.030;2023-04-06T06:39:53;101516.78;;;6.47;100.00
71907;BME280;59781;52.090;5.030;2023-04-06T06:42:20;101526.50;;;6.16;100.00
71907;BME280;59781;52.090;5.030;2023-04-06T06:45:21;101518.88;;;6.12;100.00
71907;BME280;59781;52.090;5.030;2023-04-06T06:47:47;101515.69;;;6.50;100.00
71907;BME280;59781;52.090;5.030;2023-04-06T06:50:13;101510.81;;;6.23;100.00
71907;BME280;59781;52.090;5.030;2023-04-06T06:52:39;101511.44;;;6.15;100.00
71907;BME280;59781;52.090;5.030;2023-04-06T06:55:07;101512.63;;;6.22;100.00
71907;BME280;59781;52.090;5.030;2023-04-06T06:57:34;101513.53;;;6.44;100.00
71907;BME280;59781;52.090;5.030;2023-04-06T07:00:01;101505.69;;;6.31;100.00
71907;BME280;59781;52.090;5.030;2023-04-06T07:02:28;101508.94;;;6.35;100.00
71907;BME280;59781;52.090;5.030;2023-04-06T07:04:54;101494.66;;;6.45;100.00
71907;BME280;59781;52.090;5.030;2023-04-06T07:07:20;101500.66;;;6.58;100.00
71907;BME280;59781;52.090;5.030;2023-04-06T07:09:46;101493.31;;;6.51;100.00
71907;BME280;59781;52.090;5.030;2023-04-06T07:12:11;101491.56;;;6.82;100.00
71907;BME280;59781;52.090;5.030;2023-04-06T07:14:37;101497.53;;;6.53;100.00
71907;BME280;59781;52.090;5.030;2023-04-06T07:17:03;101486.28;;;6.71;100.00
71907;BME280;59781;52.090;5.030;2023-04-06T07:19:29;101487.25;;;6.70;100.00
71907;BME280;59781;52.090;5.030;2023-04-06T07:21:55;101502.47;;;6.69;100.00
71907;BME280;59781;52.090;5.030;2023-04-06T07:24:21;101481.31;;;7.17;100.00
71907;BME280;59781;52.090;5.030;2023-04-06T07:26:47;101487.69;;;6.96;100.00
71907;BME280;59781;52.090;5.030;2023-04-06T07:29:13;101488.25;;;7.20;100.00
71907;BME280;59781;52.090;5.030;2023-04-06T07:31:39;101487.19;;;7.32;100.00
71907;BME280;59781;52.090;5.030;2023-04-06T07:34:05;101490.00;;;7.31;100.00
71907;BME280;59781;52.090;5.030;2023-04-06T07:36:31;101488.63;;;7.15;100.00
71907;BME280;59781;52.090;5.030;2023-04-06T07:38:56;101488.31;;;7.30;100.00
71907;BME280;59781;52.090;5.030;2023-04-06T07:41:22;101482.56;;;7.94;100.00
71907;BME280;59781;52.090;5.030;2023-04-06T07:43:53;101488.78;;;7.44;100.00
71907;BME280;59781;52.090;5.030;2023-04-06T07:46:22;101490.53;;;7.65;100.00
71907;BME280;59781;52.090;5.030;2023-04-06T07:48:48;101492.47;;;7.53;100.00
71907;BME280;59781;52.090;5.030;2023-04-06T07:51:15;101486.81;;;7.46;100.00
71907;BME280;59781;52.090;5.030;2023-04-06T07:53:46;101484.00;;;7.48;100.00
71907;BME280;59781;52.090;5.030;2023-04-06T07:56:12;101486.97;;;7.55;100.00
71907;BME280;59781;52.090;5.030;2023-04-06T07:58:38;101487.72;;;7.66;100.00
71907;BME280;59781;52.090;5.030;2023-04-06T08:01:03;101482.28;;;7.47;100.00
71907;BME280;59781;52.090;5.030;2023-04-06T08:03:29;101488.88;;;7.73;100.00
71907;BME280;59781;52.090;5.030;2023-04-06T08:05:55;101479.16;;;7.82;100.00
71907;BME280;59781;52.090;5.030;2023-04-06T08:08:21;101486.44;;;7.61;100.00
71907;BME280;59781;52.090;5.030;2023-04-06T08:10:48;101485.22;;;7.84;100.00
71907;BME280;59781;52.090;5.030;2023-04-06T08:13:14;101484.66;;;7.71;100.00
71907;BME280;59781;52.090;5.030;2023-04-06T08:15:40;101480.44;;;7.78;100.00
71907;BME280;59781;52.090;5.030;2023-04-06T08:18:06;101478.34;;;8.01;100.00
71907;BME280;59781;52.090;5.030;2023-04-06T08:20:33;101484.00;;;7.98;100.00
71907;BME280;59781;52.090;5.030;2023-04-06T08:22:59;101486.53;;;7.90;100.00
71907;BME280;59781;52.090;5.030;2023-04-06T08:25:25;101494.25;;;7.73;100.00
71907;BME280;59781;52.090;5.030;2023-04-06T08:27:51;101491.41;;;7.75;100.00
71907;BME280;59781;52.090;5.030;2023-04-06T08:30:18;101492.22;;;7.66;100.00
71907;BME280;59781;52.090;5.030;2023-04-06T08:32:45;101494.44;;;7.91;100.00
71907;BME280;59781;52.090;5.030;2023-04-06T08:35:11;101492.25;;;7.75;100.00
71907;BME280;59781;52.090;5.030;2023-04-06T08:37:37;101496.28;;;7.51;100.00
71907;BME280;59781;52.090;5.030;2023-04-06T08:40:04;101490.16;;;7.69;100.00
71907;BME280;59781;52.090;5.030;2023-04-06T08:42:39;101488.91;;;7.83;100.00
71907;BME280;59781;52.090;5.030;2023-04-06T08:45:09;101485.19;;;7.65;100.00
71907;BME280;59781;52.090;5.030;2023-04-06T08:47:36;101488.34;;;7.80;100.00
71907;BME280;59781;52.090;5.030;2023-04-06T08:50:07;101492.03;;;7.88;100.00
71907;BME280;59781;52.090;5.030;2023-04-06T08:52:33;101487.38;;;7.90;100.00
71907;BME280;59781;52.090;5.030;2023-04-06T08:55:02;101498.97;;;8.00;100.00
71907;BME280;59781;52.090;5.030;2023-04-06T08:57:28;101493.91;;;8.07;100.00
71907;BME280;59781;52.090;5.030;2023-04-06T08:59:57;101493.38;;;8.42;100.00
71907;BME280;59781;52.090;5.030;2023-04-06T09:02:26;101499.13;;;8.09;100.00
71907;BME280;59781;52.090;5.030;2023-04-06T09:04:53;101502.25;;;8.33;100.00
71907;BME280;59781;52.090;5.030;2023-04-06T09:07:20;101497.88;;;8.22;100.00
71907;BME280;59781;52.090;5.030;2023-04-06T09:09:46;101503.56;;;8.68;100.00
71907;BME280;59781;52.090;5.030;2023-04-06T09:12:26;101503.66;;;9.05;100.00
71907;BME280;59781;52.090;5.030;2023-04-06T09:14:54;101504.69;;;8.65;100.00
71907;BME280;59781;52.090;5.030;2023-04-06T09:17:25;101512.47;;;8.78;100.00
71907;BME280;59781;52.090;5.030;2023-04-06T09:19:54;101504.13;;;8.42;100.00
71907;BME280;59781;52.090;5.030;2023-04-06T09:22:21;101506.94;;;8.70;100.00
71907;BME280;59781;52.090;5.030;2023-04-06T09:24:49;101501.88;;;8.57;100.00
71907;BME280;59781;52.090;5.030;2023-04-06T09:27:17;101509.94;;;8.67;100.00
71907;BME280;59781;52.090;5.030;2023-04-06T09:29:44;101507.31;;;8.94;100.00
71907;BME280;59781;52.090;5.030;2023-04-06T09:32:11;101507.22;;;8.96;100.00
71907;BME280;59781;52.090;5.030;2023-04-06T09:34:41;101499.75;;;8.41;100.00
71907;BME280;59781;52.090;5.030;2023-04-06T09:37:15;101503.56;;;8.39;100.00
71907;BME280;59781;52.090;5.030;2023-04-06T09:39:41;101502.28;;;8.52;100.00
71907;BME280;59781;52.090;5.030;2023-04-06T09:42:08;101504.22;;;8.12;100.00
71907;BME280;59781;52.090;5.030;2023-04-06T09:44:34;101495.78;;;8.55;100.00
71907;BME280;59781;52.090;5.030;2023-04-06T09:47:00;101491.81;;;8.88;100.00
71907;BME280;59781;52.090;5.030;2023-04-06T09:49:33;101494.78;;;8.17;100.00
71907;BME280;59781;52.090;5.030;2023-04-06T09:52:03;101497.72;;;8.24;100.00
71907;BME280;59781;52.090;5.030;2023-04-06T09:54:31;101496.50;;;8.47;100.00
71907;BME280;59781;52.090;5.030;2023-04-06T10:00:04;101492.63;;;8.11;100.00
71907;BME280;59781;52.090;5.030;2023-04-06T10:02:50;101489.09;;;8.01;100.00
71907;BME280;59781;52.090;5.030;2023-04-06T10:05:37;101488.16;;;8.50;100.00
71907;BME280;59781;52.090;5.030;2023-04-06T10:08:10;101488.16;;;8.60;100.00
71907;BME280;59781;52.090;5.030;2023-04-06T10:10:37;101487.63;;;8.37;100.00
71907;BME280;59781;52.090;5.030;2023-04-06T10:13:04;101485.59;;;8.78;100.00
71907;BME280;59781;52.090;5.030;2023-04-06T10:15:31;101492.34;;;8.24;100.00
71907;BME280;59781;52.090;5.030;2023-04-06T10:18:01;101489.84;;;8.51;100.00
71907;BME280;59781;52.090;5.030;2023-04-06T10:20:41;101494.81;;;8.37;100.00
71907;BME280;59781;52.090;5.030;2023-04-06T10:23:37;101492.84;;;8.48;100.00
71907;BME280;59781;52.090;5.030;2023-04-06T10:26:14;101492.38;;;8.62;100.00
71907;BME280;59781;52.090;5.030;2023-04-06T10:28:44;101494.09;;;8.34;100.00
71907;BME280;59781;52.090;5.030;2023-04-06T10:31:11;101488.47;;;8.47;100.00
71907;BME280;59781;52.090;5.030;2023-04-06T10:33:37;101480.53;;;8.26;100.00
71907;BME280;59781;52.090;5.030;2023-04-06T10:36:14;101480.91;;;8.12;100.00
71907;BME280;59781;52.090;5.030;2023-04-06T10:38:46;101482.06;;;8.29;100.00
71907;BME280;59781;52.090;5.030;2023-04-06T10:41:12;101480.50;;;8.07;100.00
71907;BME280;59781;52.090;5.030;2023-04-06T10:43:40;101470.63;;;8.17;100.00
71907;BME280;59781;52.090;5.030;2023-04-06T10:46:09;101478.91;;;8.04;100.00
71907;BME280;59781;52.090;5.030;2023-04-06T10:48:40;101481.03;;;7.91;100.00
71907;BME280;59781;52.090;5.030;2023-04-06T10:51:14;101476.94;;;7.97;100.00
71907;BME280;59781;52.090;5.030;2023-04-06T10:53:42;101467.47;;;7.93;100.00
71907;BME280;59781;52.090;5.030;2023-04-06T10:56:12;101472.13;;;7.91;100.00
71907;BME280;59781;52.090;5.030;2023-04-06T10:58:47;101467.50;;;8.12;100.00
71907;BME280;59781;52.090;5.030;2023-04-06T11:01:15;101459.16;;;8.15;100.00
71907;BME280;59781;52.090;5.030;2023-04-06T11:03:51;101459.56;;;7.91;100.00
71907;BME280;59781;52.090;5.030;2023-04-06T11:06:22;101460.59;;;8.10;100.00
71907;BME280;59781;52.090;5.030;2023-04-06T11:08:57;101453.94;;;8.23;100.00
71907;BME280;59781;52.090;5.030;2023-04-06T11:11:25;101458.19;;;7.97;100.00
71907;BME280;59781;52.090;5.030;2023-04-06T11:13:57;101456.91;;;8.11;100.00
71907;BME280;59781;52.090;5.030;2023-04-06T11:16:27;101457.31;;;8.25;100.00
71907;BME280;59781;52.090;5.030;2023-04-06T11:18:57;101452.25;;;8.13;100.00
71907;BME280;59781;52.090;5.030;2023-04-06T11:21:32;101453.94;;;8.04;100.00
71907;BME280;59781;52.090;5.030;2023-04-06T11:24:14;101452.84;;;8.36;100.00
71907;BME280;59781;52.090;5.030;2023-04-06T11:26:53;101439.28;;;8.27;100.00
71907;BME280;59781;52.090;5.030;2023-04-06T11:29:23;101441.66;;;8.11;100.00
71907;BME280;59781;52.090;5.030;2023-04-06T11:31:58;101445.63;;;7.97;100.00
71907;BME280;59781;52.090;5.030;2023-04-06T11:34:37;101440.78;;;7.91;100.00
71907;BME280;59781;52.090;5.030;2023-04-06T11:37:09;101437.13;;;8.02;100.00
71907;BME280;59781;52.090;5.030;2023-04-06T11:39:51;101441.81;;;8.19;100.00
71907;BME280;59781;52.090;5.030;2023-04-06T11:42:27;101431.06;;;8.19;100.00
71907;BME280;59781;52.090;5.030;2023-04-06T11:44:59;101430.94;;;8.21;100.00
71907;BME280;59781;52.090;5.030;2023-04-06T11:47:30;101429.38;;;8.18;100.00
71907;BME280;59781;52.090;5.030;2023-04-06T11:50:06;101428.25;;;8.11;100.00
71907;BME280;59781;52.090;5.030;2023-04-06T11:52:33;101424.88;;;8.09;100.00
71907;BME280;59781;52.090;5.030;2023-04-06T11:55:11;101420.91;;;8.13;100.00
71907;BME280;59781;52.090;5.030;2023-04-06T11:57:40;101421.19;;;7.91;100.00
71907;BME280;59781;52.090;5.030;2023-04-06T12:00:08;101414.97;;;8.00;100.00
71907;BME280;59781;52.090;5.030;2023-04-06T12:02:36;101422.47;;;7.87;100.00
71907;BME280;59781;52.090;5.030;2023-04-06T12:05:03;101421.72;;;7.94;100.00
71907;BME280;59781;52.090;5.030;2023-04-06T12:07:31;101421.31;;;7.80;100.00
71907;BME280;59781;52.090;5.030;2023-04-06T12:10:02;101415.50;;;7.74;100.00
71907;BME280;59781;52.090;5.030;2023-04-06T12:12:28;101407.47;;;7.84;100.00
71907;BME280;59781;52.090;5.030;2023-04-06T12:14:55;101412.16;;;8.01;100.00
71907;BME280;59781;52.090;5.030;2023-04-06T12:17:21;101413.66;;;7.75;100.00
71907;BME280;59781;52.090;5.030;2023-04-06T12:19:47;101414.66;;;7.84;100.00
71907;BME280;59781;52.090;5.030;2023-04-06T12:22:14;101419.06;;;7.94;100.00
71907;BME280;59781;52.090;5.030;2023-04-06T12:24:39;101418.88;;;7.67;100.00
71907;BME280;59781;52.090;5.030;2023-04-06T12:27:06;101420.00;;;7.64;100.00
71907;BME280;59781;52.090;5.030;2023-04-06T12:29:32;101410.75;;;7.88;100.00
71907;BME280;59781;52.090;5.030;2023-04-06T12:31:58;101404.22;;;7.71;100.00
71907;BME280;59781;52.090;5.030;2023-04-06T12:34:26;101416.19;;;7.67;100.00
71907;BME280;59781;52.090;5.030;2023-04-06T12:36:52;101412.81;;;7.74;100.00
71907;BME280;59781;52.090;5.030;2023-04-06T12:39:18;101408.31;;;7.85;100.00
71907;BME280;59781;52.090;5.030;2023-04-06T12:41:44;101408.56;;;7.62;100.00
71907;BME280;59781;52.090;5.030;2023-04-06T12:44:10;101410.72;;;7.68;100.00
71907;BME280;59781;52.090;5.030;2023-04-06T12:46:36;101405.91;;;7.72;100.00
71907;BME280;59781;52.090;5.030;2023-04-06T12:49:02;101402.53;;;7.70;100.00
71907;BME280;59781;52.090;5.030;2023-04-06T12:51:29;101409.69;;;7.60;100.00
71907;BME280;59781;52.090;5.030;2023-04-06T12:53:56;101406.91;;;7.81;100.00
71907;BME280;59781;52.090;5.030;2023-04-06T12:56:22;101391.38;;;7.74;100.00
71907;BME280;59781;52.090;5.030;2023-04-06T12:58:51;101396.03;;;7.82;100.00
71907;BME280;59781;52.090;5.030;2023-04-06T13:01:17;101403.09;;;7.83;100.00
71907;BME280;59781;52.090;5.030;2023-04-06T13:03:43;101398.41;;;7.75;100.00
71907;BME280;59781;52.090;5.030;2023-04-06T13:06:10;101400.56;;;7.82;100.00
71907;BME280;59781;52.090;5.030;2023-04-06T13:08:37;101398.03;;;7.80;100.00
71907;BME280;59781;52.090;5.030;2023-04-06T13:11:05;101402.22;;;7.63;100.00